Time;durP1;ratioP1;P1;durP2;ratioP2;P2;SDS_P1;SDS_P2;PMS_P1;PMS_P2;Temp;Humidity;BMP_temperature;BMP_pressure;BME280_temperature;BME280_humidity;BME280_pressure;Samples;Min_cycle;Max_cycle;Signal;HPM_P1;HPM_P2
2021/10/09 00:01:56;;;;;;;1.20;0.70;;;;;;;;;;5114611;28;20026;-60
2021/10/09 00:04:24;;;;;;;1.70;0.90;;;;;;;;;;5112431;28;20112;-60
2021/10/09 00:06:51;;;;;;;3.73;1.70;;;;;;;;;;5112892;28;20036;-60
2021/10/09 00:09:18;;;;;;;1.90;1.00;;;;;;;;;;5114059;28;20370;-60
2021/10/09 00:11:44;;;;;;;2.33;0.87;;;;;;;;;;5112151;28;20028;-60
2021/10/09 00:14:14;;;;;;;4.27;1.77;;;;;;;;;;5091378;28;20695;-59
2021/10/09 00:16:45;;;;;;;1.33;0.60;;;;;;;;;;5088257;28;20474;-60
2021/10/09 00:19:12;;;;;;;0.67;0.50;;;;;;;;;;5088405;28;20032;-60
2021/10/09 00:21:49;;;;;;;2.43;1.17;;;;;;;;;;5090053;28;20095;-59
2021/10/09 00:24:17;;;;;;;3.60;0.43;;;;;;;;;;5093801;28;20020;-59
2021/10/09 00:26:44;;;;;;;1.40;0.70;;;;;;;;;;5112078;28;20019;-59
2021/10/09 00:29:10;;;;;;;2.07;0.90;;;;;;;;;;5114181;28;20030;-60
2021/10/09 00:31:37;;;;;;;1.90;0.80;;;;;;;;;;5113876;28;20027;-59
2021/10/09 00:34:04;;;;;;;2.27;1.30;;;;;;;;;;5111372;28;20028;-60
2021/10/09 00:36:31;;;;;;;2.53;1.10;;;;;;;;;;5108314;28;20516;-59
2021/10/09 00:38:58;;;;;;;6.00;1.10;;;;;;;;;;5087959;28;20081;-59
2021/10/09 00:41:25;;;;;;;3.53;0.90;;;;;;;;;;5088157;28;20024;-60
2021/10/09 00:43:53;;;;;;;6.53;1.93;;;;;;;;;;5089375;28;20487;-59
2021/10/09 00:46:19;;;;;;;4.33;1.40;;;;;;;;;;5092427;28;20032;-60
2021/10/09 00:48:47;;;;;;;3.77;1.33;;;;;;;;;;5093131;28;20032;-59
2021/10/09 00:51:13;;;;;;;3.03;1.30;;;;;;;;;;5112442;28;20027;-59
2021/10/09 00:53:41;;;;;;;2.23;1.20;;;;;;;;;;5113448;28;20020;-59
2021/10/09 00:56:09;;;;;;;1.73;0.90;;;;;;;;;;5111542;28;20035;-59
2021/10/09 00:58:38;;;;;;;2.83;1.10;;;;;;;;;;5107916;28;20138;-59
2021/10/09 01:01:05;;;;;;;2.77;1.03;;;;;;;;;;5108469;28;20042;-60
2021/10/09 01:03:32;;;;;;;2.10;1.10;;;;;;;;;;5088469;28;20028;-59
2021/10/09 01:05:58;;;;;;;5.53;1.43;;;;;;;;;;5088539;28;20486;-59
2021/10/09 01:08:25;;;;;;;5.50;1.30;;;;;;;;;;5092739;28;20018;-60
2021/10/09 01:10:52;;;;;;;5.47;1.40;;;;;;;;;;5092445;28;20077;-60
2021/10/09 01:13:19;;;;;;;4.87;1.60;;;;;;;;;;5094266;28;20016;-60
2021/10/09 01:15:46;;;;;;;8.83;2.13;;;;;;;;;;5113283;28;20015;-59
2021/10/09 01:18:14;;;;;;;5.70;2.00;;;;;;;;;;5111295;28;20516;-59
2021/10/09 01:20:54;;;;;;;4.70;1.33;;;;;;;;;;5107731;28;20484;-59
2021/10/09 01:23:22;;;;;;;4.67;1.40;;;;;;;;;;5107083;28;20111;-60
2021/10/09 01:25:49;;;;;;;2.90;1.50;;;;;;;;;;5102886;28;20109;-60
2021/10/09 01:28:16;;;;;;;4.27;1.50;;;;;;;;;;5088474;28;20424;-59
2021/10/09 01:30:43;;;;;;;4.77;1.60;;;;;;;;;;5092680;28;20052;-59
2021/10/09 01:33:10;;;;;;;4.10;1.67;;;;;;;;;;5092706;28;20471;-59
2021/10/09 01:35:51;;;;;;;4.47;1.60;;;;;;;;;;5092296;28;20081;-59
2021/10/09 01:38:19;;;;;;;6.10;1.50;;;;;;;;;;5101064;28;20512;-59
2021/10/09 01:40:46;;;;;;;2.37;1.00;;;;;;;;;;5110600;28;20513;-59
2021/10/09 01:43:13;;;;;;;6.37;1.30;;;;;;;;;;5107684;28;20055;-59
2021/10/09 01:45:43;;;;;;;2.97;1.40;;;;;;;;;;5107374;28;20026;-60
2021/10/09 01:48:10;;;;;;;4.20;1.17;;;;;;;;;;5090288;28;20028;-60
2021/10/09 01:50:37;;;;;;;5.83;1.43;;;;;;;;;;5088199;28;20077;-59
2021/10/09 01:53:07;;;;;;;5.10;1.57;;;;;;;;;;5092460;28;20038;-59
2021/10/09 01:55:38;;;;;;;11.43;1.93;;;;;;;;;;5092484;28;20115;-59
2021/10/09 01:58:05;;;;;;;5.03;1.83;;;;;;;;;;5107721;28;20096;-59
2021/10/09 02:00:33;;;;;;;4.13;1.70;;;;;;;;;;5112732;28;20020;-59
2021/10/09 02:03:07;;;;;;;5.50;1.83;;;;;;;;;;5110450;28;20030;-59
2021/10/09 02:05:35;;;;;;;3.47;1.80;;;;;;;;;;5107178;28;20036;-59
2021/10/09 02:08:03;;;;;;;5.40;1.97;;;;;;;;;;5107060;28;20085;-59
2021/10/09 02:10:30;;;;;;;4.23;2.37;;;;;;;;;;5089155;28;20086;-59
2021/10/09 02:12:59;;;;;;;4.40;1.90;;;;;;;;;;5088415;28;20103;-59
2021/10/09 02:15:36;;;;;;;4.80;2.07;;;;;;;;;;5092037;28;20020;-59
2021/10/09 02:26:16;;;;;;;4.80;2.08;;;;;;;;;;5108221;28;20042;-60
2021/10/09 02:28:42;;;;;;;3.77;2.03;;;;;;;;;;5106809;28;20020;-59
2021/10/09 02:31:09;;;;;;;3.23;1.57;;;;;;;;;;5110965;28;20027;-59
2021/10/09 02:33:36;;;;;;;3.17;1.67;;;;;;;;;;5104133;28;20379;-59
2021/10/09 02:36:03;;;;;;;2.83;1.43;;;;;;;;;;5093586;28;20360;-60
2021/10/09 02:38:30;;;;;;;4.00;1.50;;;;;;;;;;5095534;28;20036;-59
2021/10/09 02:40:57;;;;;;;3.27;1.50;;;;;;;;;;5095863;28;20016;-59
2021/10/09 02:43:24;;;;;;;4.33;1.60;;;;;;;;;;5095864;28;20100;-59
2021/10/09 02:45:50;;;;;;;6.73;2.03;;;;;;;;;;5098983;28;20035;-59
2021/10/09 02:48:17;;;;;;;4.30;2.17;;;;;;;;;;5091839;28;20039;-59
2021/10/09 02:50:44;;;;;;;3.40;1.70;;;;;;;;;;5090291;28;20028;-59
2021/10/09 02:53:12;;;;;;;7.93;1.43;;;;;;;;;;5089869;28;20028;-59
2021/10/09 02:55:38;;;;;;;3.30;1.40;;;;;;;;;;5095211;28;20446;-59
2021/10/09 02:58:05;;;;;;;2.37;1.23;;;;;;;;;;5113286;28;20520;-59
2021/10/09 03:00:32;;;;;;;2.17;1.20;;;;;;;;;;5114402;28;20030;-59
2021/10/09 03:02:59;;;;;;;3.97;1.60;;;;;;;;;;5095325;28;20554;-59
2021/10/09 03:05:26;;;;;;;3.43;1.50;;;;;;;;;;5092962;28;20103;-60
2021/10/09 03:07:53;;;;;;;2.93;1.60;;;;;;;;;;5096006;28;20378;-60
2021/10/09 03:10:20;;;;;;;3.87;1.70;;;;;;;;;;5092123;28;20034;-60
2021/10/09 03:12:47;;;;;;;3.07;1.47;;;;;;;;;;5108575;28;20095;-59
2021/10/09 03:15:14;;;;;;;4.37;1.53;;;;;;;;;;5110552;28;20031;-60
2021/10/09 03:17:41;;;;;;;3.93;1.67;;;;;;;;;;5110424;28;20032;-59
2021/10/09 03:20:09;;;;;;;2.33;1.40;;;;;;;;;;5112815;28;20050;-58
2021/10/09 03:22:36;;;;;;;2.30;1.17;;;;;;;;;;5115244;28;20020;-59
2021/10/09 03:25:03;;;;;;;10.83;3.40;;;;;;;;;;5096389;28;20378;-58
2021/10/09 03:27:30;;;;;;;3.63;1.37;;;;;;;;;;5095093;28;20107;-58
2021/10/09 03:29:58;;;;;;;3.93;1.37;;;;;;;;;;5096033;28;20032;-59
2021/10/09 03:32:24;;;;;;;3.57;1.63;;;;;;;;;;5092385;28;20390;-59
2021/10/09 03:34:51;;;;;;;3.33;1.57;;;;;;;;;;5105913;28;20031;-60
2021/10/09 03:37:18;;;;;;;3.07;1.53;;;;;;;;;;5110035;28;20052;-59
2021/10/09 03:39:47;;;;;;;2.43;1.43;;;;;;;;;;5109575;28;20023;-59
2021/10/09 03:44:52;;;;;;;2.30;1.37;;;;;;;;;;5097802;28;20034;-59
2021/10/09 03:47:30;;;;;;;3.63;1.17;;;;;;;;;;5094401;28;20470;-59
2021/10/09 03:50:05;;;;;;;1.93;0.97;;;;;;;;;;5094193;28;20028;-60
2021/10/09 03:52:41;;;;;;;3.20;1.27;;;;;;;;;;5094529;28;20066;-59
2021/10/09 03:55:15;;;;;;;3.63;1.73;;;;;;;;;;5091647;28;20407;-59
2021/10/09 03:57:42;;;;;;;2.30;1.20;;;;;;;;;;5089142;28;20483;-59
2021/10/09 04:00:11;;;;;;;1.63;1.10;;;;;;;;;;5089004;28;20028;-59
2021/10/09 04:02:37;;;;;;;3.03;1.40;;;;;;;;;;5088810;28;20495;-59
2021/10/09 04:05:04;;;;;;;2.20;1.00;;;;;;;;;;5093575;28;20081;-59
2021/10/09 04:07:31;;;;;;;2.80;1.23;;;;;;;;;;5114562;28;20020;-59
2021/10/09 04:09:58;;;;;;;2.47;1.07;;;;;;;;;;5114585;28;20431;-59
2021/10/09 04:12:25;;;;;;;1.87;1.23;;;;;;;;;;5114698;28;20436;-59
2021/10/09 04:14:51;;;;;;;3.83;0.90;;;;;;;;;;5114220;28;20032;-59
2021/10/09 04:17:18;;;;;;;2.60;1.00;;;;;;;;;;5107893;28;20031;-59
2021/10/09 04:19:45;;;;;;;2.03;0.93;;;;;;;;;;5088298;28;20024;-59
2021/10/09 04:22:12;;;;;;;6.97;1.40;;;;;;;;;;5088753;28;20111;-59
2021/10/09 04:24:39;;;;;;;4.27;0.90;;;;;;;;;;5088548;28;20028;-59
2021/10/09 04:27:05;;;;;;;2.30;1.20;;;;;;;;;;5090991;28;20111;-59
2021/10/09 04:29:32;;;;;;;2.10;1.20;;;;;;;;;;5097051;28;20019;-60
2021/10/09 04:31:59;;;;;;;3.57;1.17;;;;;;;;;;5113730;28;20422;-60
2021/10/09 04:34:27;;;;;;;10.20;1.83;;;;;;;;;;5113445;28;20024;-59
2021/10/09 04:36:58;;;;;;;3.10;1.50;;;;;;;;;;5113536;28;20092;-59
2021/10/09 04:39:25;;;;;;;3.80;1.70;;;;;;;;;;5110730;28;20402;-59
2021/10/09 04:41:51;;;;;;;4.17;1.50;;;;;;;;;;5104809;28;20043;-60
2021/10/09 04:44:19;;;;;;;3.67;1.67;;;;;;;;;;5088195;28;20084;-59
2021/10/09 04:46:45;;;;;;;3.00;1.40;;;;;;;;;;5088212;28;20027;-59
2021/10/09 04:49:12;;;;;;;3.13;1.20;;;;;;;;;;5090090;28;20371;-59
2021/10/09 04:51:39;;;;;;;2.57;1.10;;;;;;;;;;5092764;28;20091;-59
2021/10/09 04:54:06;;;;;;;1.50;0.70;;;;;;;;;;5097999;28;20084;-59
2021/10/09 04:56:33;;;;;;;4.10;1.23;;;;;;;;;;5113443;28;20069;-59
2021/10/09 04:58:59;;;;;;;2.23;1.03;;;;;;;;;;5113416;28;20026;-59
2021/10/09 05:01:26;;;;;;;2.17;0.93;;;;;;;;;;5110856;28;20073;-59
2021/10/09 05:03:53;;;;;;;2.00;1.10;;;;;;;;;;5108107;28;20038;-59
2021/10/09 05:06:20;;;;;;;1.40;0.90;;;;;;;;;;5099279;28;20111;-59
2021/10/09 05:08:46;;;;;;;1.90;1.10;;;;;;;;;;5087955;28;20031;-59
2021/10/09 05:11:14;;;;;;;1.57;0.97;;;;;;;;;;5089673;28;20052;-59
2021/10/09 05:13:41;;;;;;;1.63;0.87;;;;;;;;;;5092875;28;20077;-59
2021/10/09 05:16:07;;;;;;;4.40;1.07;;;;;;;;;;5092883;28;20066;-59
2021/10/09 05:18:34;;;;;;;0.87;0.53;;;;;;;;;;5103101;28;20036;-59
2021/10/09 05:21:01;;;;;;;2.83;0.70;;;;;;;;;;5112651;28;20024;-59
2021/10/09 05:23:30;;;;;;;1.20;0.50;;;;;;;;;;5111206;28;20099;-59
2021/10/09 05:25:58;;;;;;;3.20;0.67;;;;;;;;;;5107691;28;20106;-59
2021/10/09 05:31:03;;;;;;;1.17;0.67;;;;;;;;;;5092527;28;20509;-59
2021/10/09 05:35:57;;;;;;;2.30;0.60;;;;;;;;;;5092482;28;20051;-59
2021/10/09 05:38:24;;;;;;;1.37;0.70;;;;;;;;;;5092324;28;20051;-59
2021/10/09 05:40:51;;;;;;;1.60;0.70;;;;;;;;;;5092480;28;20032;-59
2021/10/09 05:43:20;;;;;;;1.20;0.70;;;;;;;;;;5111803;28;20039;-59
2021/10/09 05:45:47;;;;;;;2.00;0.70;;;;;;;;;;5110354;28;20032;-60
2021/10/09 05:48:13;;;;;;;2.90;0.63;;;;;;;;;;5107300;28;20373;-59
2021/10/09 05:56:07;;;;;;;1.70;0.80;;;;;;;;;;5088645;28;20032;-59
2021/10/09 05:58:35;;;;;;;3.00;0.70;;;;;;;;;;5091484;28;20534;-59
2021/10/09 06:31:36;;;;;;;1.58;0.63;;;;;;;;;;5112315;28;20043;-59
2021/10/09 06:59:42;;;;;;;1.37;0.43;;;;;;;;;;5027801;28;20022;-59
2021/10/09 07:01:50;;;;;;;0.77;0.40;;;;;;;;;;5059703;28;20391;-59
2021/10/09 07:04:17;;;;;;;0.67;0.37;;;;;;;;;;5074927;28;20498;-60
2021/10/09 07:06:43;;;;;;;0.97;0.50;;;;;;;;;;5114705;28;20019;-59
2021/10/09 07:09:10;;;;;;;1.47;0.50;;;;;;;;;;5115895;28;20024;-59
2021/10/09 07:11:37;;;;;;;0.70;0.50;;;;;;;;;;5115608;28;20019;-59
2021/10/09 07:14:06;;;;;;;0.93;0.50;;;;;;;;;;5115032;28;20025;-59
2021/10/09 07:16:32;;;;;;;1.27;0.47;;;;;;;;;;5091815;28;20026;-59
2021/10/09 07:19:01;;;;;;;1.43;0.70;;;;;;;;;;5090314;28;20471;-59
2021/10/09 07:21:28;;;;;;;1.30;0.53;;;;;;;;;;5089508;28;20055;-59
2021/10/09 07:23:55;;;;;;;0.47;0.30;;;;;;;;;;5090193;28;20028;-59
2021/10/09 07:26:22;;;;;;;1.43;0.67;;;;;;;;;;5094882;28;20016;-59
2021/10/09 07:28:49;;;;;;;2.17;0.80;;;;;;;;;;5074765;28;20029;-59
2021/10/09 07:31:16;;;;;;;1.27;0.70;;;;;;;;;;5074653;28;20453;-59
2021/10/09 07:33:43;;;;;;;0.97;0.53;;;;;;;;;;5074652;28;20021;-59
2021/10/09 07:36:10;;;;;;;2.93;0.57;;;;;;;;;;5073773;28;20410;-59
2021/10/09 07:38:36;;;;;;;3.27;0.93;;;;;;;;;;5071794;28;20387;-59
2021/10/09 07:41:03;;;;;;;1.10;0.60;;;;;;;;;;5109938;28;20490;-58
2021/10/09 07:43:30;;;;;;;0.87;0.60;;;;;;;;;;5110352;28;20035;-59
2021/10/09 07:45:57;;;;;;;1.90;0.70;;;;;;;;;;5110162;28;20911;-59
2021/10/09 07:48:24;;;;;;;1.97;0.80;;;;;;;;;;5114986;28;20020;-59
2021/10/09 07:50:51;;;;;;;1.40;0.80;;;;;;;;;;5112349;28;20537;-59
2021/10/09 07:53:18;;;;;;;2.17;0.70;;;;;;;;;;5094157;28;20036;-59
2021/10/09 07:55:47;;;;;;;0.77;0.53;;;;;;;;;;5094194;28;20074;-59
2021/10/09 07:58:14;;;;;;;3.30;0.77;;;;;;;;;;5094062;28;20128;-58
2021/10/09 08:00:40;;;;;;;1.83;0.60;;;;;;;;;;5089277;28;20039;-59
2021/10/09 08:03:07;;;;;;;3.27;0.70;;;;;;;;;;5093162;28;20153;-59
2021/10/09 08:05:35;;;;;;;1.63;0.57;;;;;;;;;;5109606;28;20028;-59
2021/10/09 08:08:03;;;;;;;2.30;0.77;;;;;;;;;;5108950;28;20028;-59
2021/10/09 08:10:29;;;;;;;1.03;0.67;;;;;;;;;;5114275;28;20030;-59
2021/10/09 08:12:56;;;;;;;3.40;0.93;;;;;;;;;;5114360;28;20084;-59
2021/10/09 08:15:23;;;;;;;1.73;0.50;;;;;;;;;;5105658;28;20024;-59
2021/10/09 08:17:50;;;;;;;3.83;0.70;;;;;;;;;;5093983;28;20043;-58
2021/10/09 08:20:17;;;;;;;1.07;0.63;;;;;;;;;;5093921;28;20021;-59
2021/10/09 08:22:56;;;;;;;2.20;0.63;;;;;;;;;;5089592;28;20027;-59
2021/10/09 08:36:30;;;;;;;0.70;0.70;;;;;;;;;;5113867;28;20042;-58
2021/10/09 08:38:56;;;;;;;2.00;0.50;;;;;;;;;;5110233;28;20039;-60
2021/10/09 08:41:23;;;;;;;1.00;0.60;;;;;;;;;;5093688;28;20032;-59
2021/10/09 08:43:51;;;;;;;2.70;0.40;;;;;;;;;;5090922;28;20466;-60
2021/10/09 08:46:19;;;;;;;0.70;0.57;;;;;;;;;;5088212;28;20028;-59
2021/10/09 08:48:50;;;;;;;1.67;0.70;;;;;;;;;;5088652;28;20020;-59
2021/10/09 08:51:21;;;;;;;0.90;0.53;;;;;;;;;;5089198;28;20121;-58
2021/10/09 08:53:48;;;;;;;0.73;0.60;;;;;;;;;;5091822;28;20043;-58
2021/10/09 08:56:48;;;;;;;1.60;0.70;;;;;;;;;;5093339;28;20055;-59
2021/10/09 08:59:29;;;;;;;2.97;0.57;;;;;;;;;;5038569;28;20055;-58
2021/10/09 09:02:08;;;;;;;2.43;1.13;;;;;;;;;;5093084;28;20043;-59
2021/10/09 09:04:53;;;;;;;2.80;0.70;;;;;;;;;;5111654;28;20031;-59
2021/10/09 09:07:39;;;;;;;0.87;0.60;;;;;;;;;;5108495;28;20035;-59
2021/10/09 09:40:55;;;;;;;2.57;0.50;;;;;;;;;;5072586;28;20438;-58
2021/10/09 09:43:22;;;;;;;1.40;0.63;;;;;;;;;;5069336;28;20060;-58
2021/10/09 09:45:49;;;;;;;0.87;0.60;;;;;;;;;;5075493;28;20017;-58
2021/10/09 09:48:16;;;;;;;1.83;0.60;;;;;;;;;;5113571;28;20054;-58
2021/10/09 09:50:43;;;;;;;0.80;0.50;;;;;;;;;;5109428;28;20728;-59
2021/10/09 09:53:09;;;;;;;0.50;0.30;;;;;;;;;;5107680;28;20479;-59
2021/10/09 09:55:36;;;;;;;0.80;0.50;;;;;;;;;;5107594;28;20019;-58
2021/10/09 09:58:05;;;;;;;0.93;0.50;;;;;;;;;;5104573;28;20043;-59
2021/10/09 10:00:35;;;;;;;1.30;0.70;;;;;;;;;;5090320;28;20023;-59
2021/10/09 10:03:03;;;;;;;0.93;0.30;;;;;;;;;;5092411;28;20023;-58
2021/10/09 10:05:30;;;;;;;0.50;0.40;;;;;;;;;;5092341;28;20399;-59
2021/10/09 10:07:57;;;;;;;0.57;0.50;;;;;;;;;;5092417;28;20052;-58
2021/10/09 10:10:23;;;;;;;0.60;0.50;;;;;;;;;;5095079;28;20026;-59
2021/10/09 10:12:54;;;;;;;0.97;0.50;;;;;;;;;;5108684;28;20035;-59
2021/10/09 10:15:25;;;;;;;1.30;0.60;;;;;;;;;;5107354;28;20032;-59
2021/10/09 10:17:52;;;;;;;0.90;0.40;;;;;;;;;;5107421;28;20077;-59
2021/10/09 10:20:19;;;;;;;0.57;0.30;;;;;;;;;;5107664;28;20106;-59
2021/10/09 10:22:49;;;;;;;0.50;0.40;;;;;;;;;;5102567;28;20035;-59
2021/10/09 10:25:19;;;;;;;1.20;0.40;;;;;;;;;;5091760;28;20055;-59
2021/10/09 10:27:57;;;;;;;0.43;0.43;;;;;;;;;;5091959;28;20105;-59
2021/10/09 10:30:24;;;;;;;0.20;0.20;;;;;;;;;;5092138;28;20059;-58
2021/10/09 10:32:56;;;;;;;0.67;0.50;;;;;;;;;;5092140;28;20032;-58
2021/10/09 10:35:31;;;;;;;0.70;0.50;;;;;;;;;;5101499;28;20044;-59
2021/10/09 10:38:09;;;;;;;0.87;0.60;;;;;;;;;;5107352;28;20027;-59
2021/10/09 10:40:54;;;;;;;0.40;0.30;;;;;;;;;;5107248;28;20023;-58
2021/10/09 10:48:59;;;;;;;1.73;0.40;;;;;;;;;;5092086;28;20036;-58
2021/10/09 10:51:44;;;;;;;0.43;0.40;;;;;;;;;;5094043;28;20491;-58
2021/10/09 10:54:29;;;;;;;0.50;0.40;;;;;;;;;;5095494;28;20127;-58
2021/10/09 10:57:04;;;;;;;4.13;0.50;;;;;;;;;;5092664;28;20055;-59
2021/10/09 11:02:15;;;;;;;1.33;0.50;;;;;;;;;;5110735;28;20046;-59
2021/10/09 11:04:43;;;;;;;1.70;0.60;;;;;;;;;;5110914;28;20106;-58
2021/10/09 11:07:10;;;;;;;0.70;0.30;;;;;;;;;;5113884;28;20031;-58
2021/10/09 11:09:40;;;;;;;1.53;0.70;;;;;;;;;;5111539;28;20371;-58
2021/10/09 11:12:27;;;;;;;2.53;0.63;;;;;;;;;;5095420;28;20028;-59
2021/10/09 11:15:05;;;;;;;1.10;0.37;;;;;;;;;;5095114;28;20035;-58
2021/10/09 11:17:37;;;;;;;0.50;0.40;;;;;;;;;;5094822;28;20032;-59
2021/10/09 11:20:06;;;;;;;0.43;0.43;;;;;;;;;;5090343;28;20522;-59
2021/10/09 11:22:42;;;;;;;0.40;0.37;;;;;;;;;;5091041;28;20513;-59
2021/10/09 11:25:09;;;;;;;1.10;0.60;;;;;;;;;;5089997;28;20429;-58
2021/10/09 11:27:38;;;;;;;4.80;1.00;;;;;;;;;;5090034;28;20024;-58
2021/10/09 11:30:06;;;;;;;1.60;0.90;;;;;;;;;;5094182;28;20514;-58
2021/10/09 11:32:34;;;;;;;2.17;1.10;;;;;;;;;;5095167;28;20035;-58
2021/10/09 11:35:01;;;;;;;1.63;0.90;;;;;;;;;;5104321;28;20359;-58
2021/10/09 11:37:28;;;;;;;4.17;1.10;;;;;;;;;;5114889;28;20390;-58
2021/10/09 11:39:58;;;;;;;1.77;0.93;;;;;;;;;;5115344;28;20023;-58
2021/10/09 11:42:35;;;;;;;1.60;1.00;;;;;;;;;;5109801;28;20032;-58
2021/10/09 11:45:04;;;;;;;2.43;0.70;;;;;;;;;;5110068;28;20108;-59
2021/10/09 11:56:01;;;;;;;1.67;0.87;;;;;;;;;;5094518;28;20014;-58
2021/10/09 11:58:29;;;;;;;3.30;1.10;;;;;;;;;;5098229;28;20058;-59
2021/10/09 12:00:56;;;;;;;1.20;0.70;;;;;;;;;;5104083;28;20031;-59
2021/10/09 12:03:26;;;;;;;1.67;0.80;;;;;;;;;;5091701;28;20031;-59
2021/10/09 12:05:54;;;;;;;2.00;0.87;;;;;;;;;;5089209;28;20024;-58
2021/10/09 12:08:26;;;;;;;2.33;1.27;;;;;;;;;;5089040;28;20530;-59
2021/10/09 12:11:11;;;;;;;0.80;0.60;;;;;;;;;;5097187;28;20079;-59
2021/10/09 12:13:52;;;;;;;1.60;0.67;;;;;;;;;;5112355;28;20031;-58
2021/10/09 12:16:23;;;;;;;1.13;0.70;;;;;;;;;;5114293;28;20027;-59
2021/10/09 12:18:54;;;;;;;2.83;0.80;;;;;;;;;;5113028;28;20364;-59
2021/10/09 12:21:25;;;;;;;1.37;0.70;;;;;;;;;;5093870;28;20039;-59
2021/10/09 12:23:53;;;;;;;1.27;0.80;;;;;;;;;;5093996;28;20050;-58
2021/10/09 12:26:21;;;;;;;1.97;0.70;;;;;;;;;;5089885;28;20027;-59
2021/10/09 12:29:07;;;;;;;1.03;0.50;;;;;;;;;;5088634;28;20094;-59
2021/10/09 12:31:36;;;;;;;1.03;0.60;;;;;;;;;;5068561;28;20029;-59
2021/10/09 12:34:03;;;;;;;0.67;0.50;;;;;;;;;;5068485;28;20479;-59
2021/10/09 12:36:41;;;;;;;1.03;0.60;;;;;;;;;;5072622;28;20522;-58
2021/10/09 12:39:27;;;;;;;1.57;0.63;;;;;;;;;;5073202;28;20064;-58
2021/10/09 12:41:55;;;;;;;0.70;0.40;;;;;;;;;;5084898;28;20027;-58
2021/10/09 12:44:22;;;;;;;0.70;0.43;;;;;;;;;;5112022;28;20114;-59
2021/10/09 12:46:49;;;;;;;1.17;0.77;;;;;;;;;;5112651;28;20410;-59
2021/10/09 12:49:16;;;;;;;2.07;0.97;;;;;;;;;;5108801;28;20030;-58
2021/10/09 12:51:43;;;;;;;5.60;1.10;;;;;;;;;;5108321;28;20059;-60
2021/10/09 12:54:10;;;;;;;2.30;1.20;;;;;;;;;;5098749;28;20554;-59
2021/10/09 12:56:37;;;;;;;1.63;0.87;;;;;;;;;;5088142;28;20023;-58
2021/10/09 12:59:05;;;;;;;1.50;0.73;;;;;;;;;;5093250;28;20111;-59
2021/10/09 13:01:32;;;;;;;1.40;0.70;;;;;;;;;;5092915;28;20115;-59
2021/10/09 13:03:58;;;;;;;5.40;0.90;;;;;;;;;;5093196;28;20497;-59
2021/10/09 13:06:25;;;;;;;1.63;1.00;;;;;;;;;;5105116;28;20390;-59
2021/10/09 13:08:52;;;;;;;1.30;0.73;;;;;;;;;;5113344;28;20011;-59
2021/10/09 13:11:27;;;;;;;1.73;0.77;;;;;;;;;;5108209;28;20142;-59
2021/10/09 13:13:54;;;;;;;3.37;0.80;;;;;;;;;;5097655;28;20490;-59
2021/10/09 13:16:21;;;;;;;3.83;0.70;;;;;;;;;;5088203;28;20024;-59
2021/10/09 13:18:47;;;;;;;4.17;1.07;;;;;;;;;;5091039;28;20024;-61
2021/10/09 13:21:14;;;;;;;2.27;1.30;;;;;;;;;;5092908;28;20028;-61
2021/10/09 13:23:41;;;;;;;1.17;0.83;;;;;;;;;;5099677;28;20073;-60
2021/10/09 13:26:08;;;;;;;3.50;1.17;;;;;;;;;;5113174;28;20028;-60
2021/10/09 13:28:37;;;;;;;3.60;1.37;;;;;;;;;;5111276;28;20016;-59
2021/10/09 13:31:04;;;;;;;1.60;0.80;;;;;;;;;;5092849;28;20027;-58
2021/10/09 13:33:31;;;;;;;1.03;0.73;;;;;;;;;;5087643;28;20059;-59
2021/10/09 13:35:58;;;;;;;1.80;1.03;;;;;;;;;;5087150;28;20024;-58
2021/10/09 13:38:30;;;;;;;2.17;0.87;;;;;;;;;;5087383;28;20032;-59
2021/10/09 13:40:57;;;;;;;1.17;0.60;;;;;;;;;;5102217;28;20110;-60
2021/10/09 13:43:23;;;;;;;2.30;0.83;;;;;;;;;;5109917;28;20496;-59
2021/10/09 13:45:50;;;;;;;2.17;0.70;;;;;;;;;;5092348;28;20467;-59
2021/10/09 13:48:17;;;;;;;5.60;0.90;;;;;;;;;;5092610;28;20424;-59
2021/10/09 13:50:50;;;;;;;8.40;1.20;;;;;;;;;;5092040;28;20024;-58
2021/10/09 13:53:16;;;;;;;2.03;1.00;;;;;;;;;;5092565;28;20024;-59
2021/10/09 13:55:43;;;;;;;6.43;1.10;;;;;;;;;;5107829;28;20054;-59
2021/10/09 13:58:11;;;;;;;2.13;0.90;;;;;;;;;;5107772;28;20092;-58
2021/10/09 14:00:38;;;;;;;1.47;0.70;;;;;;;;;;5107703;28;20028;-58
2021/10/09 14:03:05;;;;;;;1.20;0.67;;;;;;;;;;5107589;28;20390;-58
2021/10/09 14:05:32;;;;;;;4.97;1.60;;;;;;;;;;5107650;28;20059;-58
2021/10/09 14:07:59;;;;;;;3.80;1.73;;;;;;;;;;5092262;28;20024;-58
2021/10/09 14:10:26;;;;;;;5.90;2.07;;;;;;;;;;5092110;28;20028;-59
2021/10/09 14:12:53;;;;;;;4.87;2.03;;;;;;;;;;5092488;28;20028;-59
2021/10/09 14:15:19;;;;;;;3.80;1.80;;;;;;;;;;5107690;28;20027;-62
2021/10/09 14:17:46;;;;;;;8.73;2.17;;;;;;;;;;5081434;28;20036;-59
2021/10/09 14:20:13;;;;;;;7.10;2.50;;;;;;;;;;5087347;28;20315;-59
2021/10/09 14:22:40;;;;;;;7.20;2.60;;;;;;;;;;5086780;28;20449;-58
2021/10/09 14:25:08;;;;;;;6.03;3.07;;;;;;;;;;5101554;28;20028;-58
2021/10/09 14:27:35;;;;;;;9.67;3.73;;;;;;;;;;5115363;28;20085;-58
2021/10/09 14:30:02;;;;;;;14.33;4.60;;;;;;;;;;5116609;28;20019;-59
2021/10/09 14:32:29;;;;;;;10.37;3.37;;;;;;;;;;5116560;28;20094;-58
2021/10/09 14:34:56;;;;;;;5.73;2.70;;;;;;;;;;5106140;28;20102;-59
2021/10/09 14:37:22;;;;;;;5.57;2.67;;;;;;;;;;5095818;28;20036;-59
2021/10/09 14:39:50;;;;;;;5.77;2.77;;;;;;;;;;5091612;28;20024;-58
2021/10/09 14:42:17;;;;;;;4.83;2.70;;;;;;;;;;5090903;28;20057;-58
2021/10/09 14:44:45;;;;;;;4.53;2.53;;;;;;;;;;5097944;28;20551;-58
2021/10/09 14:50:06;;;;;;;6.22;2.17;;;;;;;;;;5114910;28;20085;-59
2021/10/09 15:19:34;;;;;;;1.93;1.10;;;;;;;;;;5112764;28;20035;-60
2021/10/09 15:22:01;;;;;;;1.47;0.70;;;;;;;;;;5115646;28;20098;-60
2021/10/09 15:24:28;;;;;;;3.10;1.00;;;;;;;;;;5111181;28;20523;-60
2021/10/09 15:26:55;;;;;;;2.20;1.10;;;;;;;;;;5110401;28;20028;-59
2021/10/09 15:29:22;;;;;;;2.50;1.30;;;;;;;;;;5094310;28;20032;-60
2021/10/09 15:31:48;;;;;;;2.93;1.17;;;;;;;;;;5090162;28;21533;-60
2021/10/09 15:34:16;;;;;;;2.60;1.53;;;;;;;;;;5093632;28;20032;-59
2021/10/09 15:36:43;;;;;;;3.83;1.80;;;;;;;;;;5093884;28;20032;-59
2021/10/09 15:39:10;;;;;;;3.63;1.40;;;;;;;;;;5094901;28;20084;-60
2021/10/09 15:41:37;;;;;;;3.73;1.80;;;;;;;;;;5112823;28;20403;-60
2021/10/09 15:44:04;;;;;;;5.60;2.43;;;;;;;;;;5115158;28;20059;-61
2021/10/09 15:46:30;;;;;;;5.13;2.83;;;;;;;;;;5101428;28;20422;-60
2021/10/09 15:48:57;;;;;;;3.77;2.50;;;;;;;;;;5072369;28;20095;-59
2021/10/09 15:51:24;;;;;;;3.80;2.13;;;;;;;;;;5069423;28;20028;-60
2021/10/09 15:53:51;;;;;;;7.10;2.47;;;;;;;;;;5104098;28;20063;-59
2021/10/09 15:56:18;;;;;;;4.50;2.43;;;;;;;;;;5094886;28;20388;-58
2021/10/09 15:58:46;;;;;;;5.93;2.03;;;;;;;;;;5094329;28;20394;-58
2021/10/09 16:01:13;;;;;;;3.77;2.20;;;;;;;;;;5106158;28;20039;-60
2021/10/09 16:03:40;;;;;;;4.50;2.23;;;;;;;;;;5113088;28;20020;-59
2021/10/09 16:06:06;;;;;;;4.13;1.80;;;;;;;;;;5114659;28;20032;-60
2021/10/09 16:08:33;;;;;;;3.63;1.90;;;;;;;;;;5111395;28;20055;-60
2021/10/09 16:11:00;;;;;;;3.13;1.40;;;;;;;;;;5109303;28;20043;-60
2021/10/09 16:13:29;;;;;;;3.30;1.43;;;;;;;;;;5096979;28;20028;-60
2021/10/09 16:15:56;;;;;;;3.17;1.60;;;;;;;;;;5089123;28;20024;-60
2021/10/09 16:18:23;;;;;;;3.87;2.13;;;;;;;;;;5091702;28;20032;-60
2021/10/09 16:20:52;;;;;;;3.60;1.97;;;;;;;;;;5094159;28;20020;-62
2021/10/09 16:23:21;;;;;;;2.60;1.30;;;;;;;;;;5098816;28;20076;-58
2021/10/09 16:25:49;;;;;;;5.20;1.70;;;;;;;;;;5096427;28;20056;-58
2021/10/09 16:28:20;;;;;;;3.10;1.77;;;;;;;;;;5093605;28;20028;-58
2021/10/09 16:30:51;;;;;;;2.93;1.40;;;;;;;;;;5090729;28;20028;-59
2021/10/09 16:33:22;;;;;;;1.93;1.10;;;;;;;;;;5094412;28;20347;-59
2021/10/09 16:35:49;;;;;;;1.83;0.87;;;;;;;;;;5094776;28;20032;-61
2021/10/09 16:38:19;;;;;;;1.10;0.70;;;;;;;;;;5088094;28;20039;-59
2021/10/09 16:40:57;;;;;;;0.53;0.40;;;;;;;;;;5091441;28;20462;-59
2021/10/09 16:43:28;;;;;;;0.70;0.40;;;;;;;;;;5093690;28;20024;-59
2021/10/09 16:45:56;;;;;;;0.50;0.30;;;;;;;;;;5093654;28;20077;-59
2021/10/09 16:48:26;;;;;;;0.53;0.20;;;;;;;;;;5092749;28;20045;-59
2021/10/09 16:50:57;;;;;;;3.07;0.70;;;;;;;;;;5093034;28;20008;-60
2021/10/09 16:53:24;;;;;;;1.20;0.67;;;;;;;;;;5089552;28;20024;-58
2021/10/09 16:55:55;;;;;;;1.80;0.60;;;;;;;;;;5088365;28;20111;-59
2021/10/09 16:58:27;;;;;;;1.20;0.60;;;;;;;;;;5088291;28;20463;-58
2021/10/09 17:01:04;;;;;;;2.20;0.70;;;;;;;;;;5087879;28;20020;-59
2021/10/09 17:03:32;;;;;;;2.03;0.50;;;;;;;;;;5092006;28;20024;-58
2021/10/09 17:06:01;;;;;;;1.13;0.50;;;;;;;;;;5093292;28;20035;-59
2021/10/09 17:08:32;;;;;;;1.83;0.60;;;;;;;;;;5093380;28;20074;-57
2021/10/09 17:11:03;;;;;;;0.97;0.60;;;;;;;;;;5092337;28;20539;-60
2021/10/09 17:13:31;;;;;;;1.47;0.70;;;;;;;;;;5092962;28;20493;-59
2021/10/09 17:16:01;;;;;;;1.43;0.70;;;;;;;;;;5088510;28;20035;-60
2021/10/09 17:18:33;;;;;;;1.07;0.73;;;;;;;;;;5087816;28;20462;-60
2021/10/09 17:21:00;;;;;;;2.23;1.10;;;;;;;;;;5087542;28;20028;-59
2021/10/09 17:23:33;;;;;;;2.40;1.30;;;;;;;;;;5087463;28;20032;-61
2021/10/09 17:26:03;;;;;;;2.27;0.90;;;;;;;;;;5090427;28;20023;-60
2021/10/09 17:28:34;;;;;;;5.67;0.80;;;;;;;;;;5092550;28;20093;-59
2021/10/09 17:31:06;;;;;;;1.20;0.70;;;;;;;;;;5092958;28;20496;-59
2021/10/09 17:33:36;;;;;;;1.60;0.77;;;;;;;;;;5095028;28;20028;-60
2021/10/09 17:36:06;;;;;;;3.43;1.00;;;;;;;;;;5095272;28;20025;-58
2021/10/09 17:38:36;;;;;;;2.17;0.93;;;;;;;;;;5086224;28;20052;-60